Main page
METAR-TAF:

METAR-TAF

Airports :

Durham Tees Valley Airport

Durham, England

latitude: 54-31N, longitude: 001-25W, elevation: 37 m

Current weather observation

The report was made 4 hours and 9 minutes ago, at 20:50 UTC
Wind 5 kt from the South/Southeast
Temperature 14°C
Humidity 72%
Pressure 1019 hPa
Visibility 10 km or more
no clouds below 1500 m and no cumulonimbus

METAR: EGNV 202050Z 16005KT CAVOK 14/09 Q1019

Time: 01:59 (00:59 UTC)

Forecast

The report was made 7 hours and 57 minutes ago, at 17:02 UTC
Forecast valid from 20 at 18 UTC to 20 at 21 UTC
Wind 7 kt from the South/Southeast
Visibility 10 km or more
Few clouds at a height of 4000 ft

TAF: EGNV 201702Z 2018/2021 15007KT 9999 FEW040

Weather observations and forecasts of more than 4000 airports (METAR and TAF reports).

The available stations are represented by yellow and red dots on the map.

Hover mouse over dot to see the name of the station.

Then click to see weather observations and forecasts.

To change the map : click on the green buttons with a black cross to zoom in, on the green button with a dash to zoom out, or on the green arrows for adjacent maps.


METAR-TAF: